createdAt,value
2018-11-12T05:00:36.275Z,90.32
2018-11-12T05:01:36.272Z,90.32
2018-11-12T05:02:36.246Z,88.23
2018-11-12T05:03:36.236Z,87.71
2018-11-12T05:04:36.222Z,87.61
2018-11-12T05:05:36.223Z,87.82
2018-11-12T05:06:36.199Z,88.33
2018-11-12T05:07:36.255Z,88.64
2018-11-12T05:08:36.182Z,88.53
2018-11-12T05:09:36.166Z,89.66
2018-11-12T05:10:36.171Z,89.39
2018-11-12T05:11:36.144Z,89.36
2018-11-12T05:12:36.134Z,89.66
2018-11-12T05:13:36.136Z,89.19
2018-11-12T05:14:36.172Z,88.33
2018-11-12T05:15:36.110Z,87.65
2018-11-12T05:16:36.434Z,88.23
2018-11-12T05:17:36.083Z,88.74
2018-11-12T05:18:36.070Z,88.47
2018-11-12T05:19:36.056Z,88.94
2018-11-12T05:20:36.056Z,88.47
2018-11-12T05:21:36.032Z,88.43
2018-11-12T05:22:36.025Z,87.71
2018-11-12T05:23:36.018Z,88.23
2018-11-12T05:24:36.003Z,88.12
2018-11-12T05:25:36.022Z,88.33
2018-11-12T05:26:35.979Z,87.51
2018-11-12T05:27:35.973Z,87.61
2018-11-12T05:28:35.956Z,87.20
2018-11-12T05:29:35.945Z,85.22
2018-11-12T05:30:35.945Z,86.65
2018-11-12T05:31:35.926Z,86.96
2018-11-12T05:32:35.912Z,86.91
2018-11-12T05:33:35.904Z,85.48
2018-11-12T05:34:35.888Z,85.99
2018-11-12T05:35:35.889Z,86.36
2018-11-12T05:36:35.865Z,87.02
2018-11-12T05:37:35.879Z,87.12
2018-11-12T05:38:35.843Z,87.12
2018-11-12T05:39:35.831Z,86.40
2018-11-12T05:40:35.833Z,87.12
2018-11-12T05:41:35.812Z,86.91
2018-11-12T05:42:35.799Z,87.12
2018-11-12T05:43:35.786Z,87.84
2018-11-12T05:44:35.775Z,86.85
2018-11-12T05:45:35.776Z,87.22
2018-11-12T05:46:35.752Z,87.43
2018-11-12T05:47:35.744Z,87.63
2018-11-12T05:48:35.730Z,86.71
2018-11-12T05:49:35.718Z,86.04
2018-11-12T05:50:35.725Z,86.71
2018-11-12T05:51:35.830Z,85.96
2018-11-12T05:52:35.688Z,85.48
2018-11-12T05:53:35.691Z,85.38
2018-11-12T05:54:35.666Z,83.60
2018-11-12T05:55:35.677Z,83.39
2018-11-12T05:56:35.646Z,83.91
2018-11-12T05:57:35.636Z,84.99
2018-11-12T05:58:35.624Z,83.15
2018-11-12T05:59:35.612Z,83.36
2018-11-12T06:00:35.610Z,83.25
2018-11-12T06:01:35.592Z,83.05
2018-11-12T06:02:35.578Z,83.76
2018-11-12T06:03:35.563Z,83.97
2018-11-12T06:04:35.595Z,81.35
2018-11-12T06:05:35.562Z,82.84
2018-11-12T06:06:35.537Z,83.15
2018-11-12T06:07:36.448Z,83.87
2018-11-12T06:08:36.422Z,83.46
2018-11-12T06:09:36.388Z,83.70
2018-11-12T06:10:35.504Z,83.56
2018-11-12T06:11:35.468Z,84.79
2018-11-12T06:12:35.464Z,84.83
2018-11-12T06:13:35.449Z,82.23
2018-11-12T06:14:35.446Z,83.15
2018-11-12T06:15:35.439Z,81.79
2018-11-12T06:16:35.419Z,80.76
2018-11-12T06:17:35.404Z,80.52
2018-11-12T06:18:35.397Z,79.19
2018-11-12T06:19:35.386Z,78.44
2018-11-12T06:20:35.392Z,79.57
2018-11-12T06:21:35.371Z,80.48
2018-11-12T06:22:35.409Z,81.13
2018-11-12T06:23:35.348Z,81.34
2018-11-12T06:24:35.340Z,82.26
2018-11-12T06:25:35.340Z,81.17
2018-11-12T06:26:35.320Z,81.48
2018-11-12T06:27:35.306Z,83.01
2018-11-12T06:28:35.282Z,83.62
2018-11-12T06:29:35.288Z,84.65
2018-11-12T06:30:35.280Z,84.79
2018-11-12T06:31:35.249Z,84.79
2018-11-12T06:32:35.241Z,84.79
2018-11-12T06:33:35.238Z,84.89
2018-11-12T06:34:35.218Z,83.87
2018-11-12T06:35:35.247Z,84.69
2018-11-12T06:36:35.213Z,84.58
2018-11-12T06:37:35.197Z,84.28
2018-11-12T06:38:35.173Z,83.25
2018-11-12T06:39:35.159Z,82.84
2018-11-12T06:40:35.195Z,82.50
2018-11-12T06:41:35.135Z,81.38
2018-11-12T06:42:35.199Z,81.44
2018-11-12T06:43:35.117Z,81.48
2018-11-12T06:44:35.104Z,81.17
2018-11-12T06:45:35.094Z,82.09
2018-11-12T06:46:35.090Z,82.91
2018-11-12T06:47:35.067Z,82.20
2018-11-12T06:48:35.059Z,80.87
2018-11-12T06:49:35.044Z,81.27
2018-11-12T06:50:35.032Z,80.52
2018-11-12T06:51:35.038Z,80.32
2018-11-12T06:52:35.010Z,78.23
2018-11-12T06:53:35.086Z,78.68
2018-11-12T06:54:34.991Z,78.64
2018-11-12T06:55:34.984Z,79.66
2018-11-12T06:56:34.980Z,80.18
2018-11-12T06:57:34.961Z,80.18
2018-11-12T06:58:34.946Z,80.48
2018-11-12T06:59:34.938Z,80.38
2018-11-12T07:00:34.930Z,80.28
2018-11-12T07:01:34.923Z,79.16
2018-11-12T07:02:34.905Z,79.87
2018-11-12T07:03:34.890Z,80.28
2018-11-12T07:04:34.882Z,79.77
2018-11-12T07:05:34.868Z,78.13
2018-11-12T07:06:34.917Z,78.64
2018-11-12T07:07:34.843Z,80.28
2018-11-12T07:08:34.833Z,80.24
2018-11-12T07:09:34.821Z,79.87
2018-11-12T07:10:34.810Z,80.07
2018-11-12T07:11:34.816Z,79.77
2018-11-12T07:12:34.787Z,79.66
2018-11-12T07:13:34.776Z,79.36
2018-11-12T07:14:34.764Z,79.46
2018-11-12T07:15:34.752Z,77.62
2018-11-12T07:16:34.758Z,76.26
2018-11-12T07:17:34.739Z,77.69
2018-11-12T07:18:34.723Z,78.23
2018-11-12T07:19:34.724Z,76.36
2018-11-12T07:20:34.700Z,76.32
2018-11-12T07:21:34.700Z,76.02
2018-11-12T07:22:34.677Z,74.38
2018-11-12T07:23:34.667Z,74.76
2018-11-12T07:24:34.655Z,75.31
2018-11-12T07:25:34.643Z,76.53
2018-11-12T07:26:34.644Z,77.41
2018-11-12T07:27:34.620Z,78.27
2018-11-12T07:28:34.614Z,76.84
2018-11-12T07:29:34.598Z,76.32
2018-11-12T07:30:34.600Z,76.22
2018-11-12T07:31:34.591Z,76.32
2018-11-12T07:32:34.572Z,74.90
2018-11-12T07:33:34.561Z,75.51
2018-11-12T07:34:34.545Z,76.73
2018-11-12T07:35:34.535Z,78.20
2018-11-12T07:36:34.539Z,79.02
2018-11-12T07:37:34.520Z,77.79
2018-11-12T07:38:34.506Z,75.44
2018-11-12T07:39:34.492Z,75.24
2018-11-12T07:40:34.485Z,75.65
2018-11-12T07:41:34.478Z,79.12
2018-11-12T07:42:34.456Z,79.32
2018-11-12T07:43:34.448Z,79.73
2018-11-12T07:44:34.432Z,79.66
2018-11-12T07:45:34.421Z,79.63
2018-11-12T07:46:34.420Z,80.00
2018-11-12T07:47:34.399Z,79.69
2018-11-12T07:48:34.453Z,79.75
2018-11-12T07:49:34.375Z,76.09
2018-11-12T07:50:34.380Z,75.16
2018-11-12T07:51:34.381Z,74.83
2018-11-12T07:52:34.384Z,75.13
2018-11-12T07:53:34.334Z,75.13
2018-11-12T07:54:34.325Z,74.73
2018-11-12T07:55:34.314Z,74.32
2018-11-12T07:56:34.312Z,75.10
2018-11-12T07:57:34.287Z,75.92
2018-11-12T07:58:34.285Z,76.12
2018-11-12T07:59:34.277Z,72.96
2018-11-12T08:00:34.259Z,68.34
2018-11-12T08:01:34.258Z,71.50
2018-11-12T08:02:34.243Z,67.73
2018-11-12T08:03:34.228Z,68.41
2018-11-12T08:04:34.212Z,69.43
2018-11-12T08:05:34.201Z,69.49
2018-11-12T08:06:34.206Z,69.87
2018-11-12T08:07:34.182Z,68.04
2018-11-12T08:08:34.168Z,66.79
2018-11-12T08:09:34.195Z,67.36
2018-11-12T08:10:34.140Z,67.47
2018-11-12T08:11:34.153Z,66.49
2018-11-12T08:12:34.114Z,64.61
2018-11-12T08:13:34.113Z,63.79
2018-11-12T08:14:34.216Z,62.88
2018-11-12T08:15:34.095Z,63.26
2018-11-12T08:16:34.084Z,63.96
2018-11-12T08:17:34.096Z,60.42
2018-11-12T08:18:34.048Z,61.56
2018-11-12T08:22:07.757Z,65.91
2018-11-12T08:26:11.605Z,65.26
2018-11-12T08:27:11.616Z,62.49
2018-11-12T08:28:11.580Z,65.44
2018-11-12T08:29:11.564Z,66.05
2018-11-12T08:30:11.707Z,65.74
2018-11-12T08:31:11.541Z,65.51
2018-11-12T08:32:11.547Z,65.74
2018-11-12T08:33:11.610Z,63.81
2018-11-12T08:34:11.508Z,63.58
2018-11-12T08:35:11.496Z,63.98
2018-11-12T08:36:11.563Z,64.70
2018-11-12T08:37:11.491Z,63.78
2018-11-12T08:38:11.462Z,63.07
2018-11-12T08:39:11.467Z,63.58
2018-11-12T08:40:11.473Z,62.53
2018-11-12T08:41:11.594Z,63.65
2018-11-12T08:42:11.429Z,63.24
2018-11-12T08:43:11.409Z,65.68
2018-11-12T08:44:11.400Z,64.53
2018-11-12T08:45:11.383Z,63.55
2018-11-12T08:46:11.418Z,64.36
2018-11-12T08:47:11.374Z,62.81
2018-11-12T08:48:11.352Z,63.42
2018-11-12T08:49:11.585Z,62.60
2018-11-12T08:50:11.394Z,62.27
2018-11-12T08:51:11.315Z,63.29
2018-11-12T08:52:11.357Z,63.15
2018-11-12T08:53:11.294Z,60.19
2018-11-12T08:54:11.282Z,61.13
2018-11-12T08:55:11.338Z,61.40
2018-11-12T08:56:11.258Z,60.46
2018-11-12T08:57:11.261Z,60.97
2018-11-12T08:58:12.159Z,61.44
2018-11-12T08:59:11.286Z,60.46
2018-11-12T09:00:11.213Z,63.70
2018-11-12T09:01:11.206Z,59.99
2018-11-12T09:02:11.207Z,61.83
2018-11-12T09:03:11.179Z,62.04
2018-11-12T09:04:11.210Z,62.98
2018-11-12T09:05:11.157Z,63.15
2018-11-12T09:06:11.146Z,63.79
2018-11-12T09:07:11.184Z,63.18
2018-11-12T09:08:11.123Z,63.59
2018-11-12T09:09:11.120Z,63.59
2018-11-12T09:10:11.129Z,61.36
2018-11-12T09:11:11.094Z,59.63
2018-11-12T09:12:11.095Z,60.42
2018-11-12T09:13:11.065Z,61.00
2018-11-12T09:14:11.056Z,62.21
2018-11-12T09:15:11.043Z,62.62
2018-11-12T09:16:11.032Z,62.31
2018-11-12T09:17:11.009Z,63.43
2018-11-12T09:18:11.021Z,63.32
2018-11-12T09:19:11.001Z,63.73
2018-11-12T09:20:11.000Z,61.00
2018-11-12T09:21:10.975Z,60.36
2018-11-12T09:22:10.963Z,60.86
2018-11-12T09:23:10.964Z,61.58
2018-11-12T09:24:10.965Z,60.57
2018-11-12T09:25:10.931Z,59.14
2018-11-12T09:26:10.919Z,59.72
2018-11-12T09:27:10.907Z,60.03
2018-11-12T09:28:10.909Z,58.31
2018-11-12T09:29:10.888Z,58.92
2018-11-12T09:30:10.878Z,59.19
2018-11-12T09:31:12.056Z,58.07
2018-11-12T09:32:10.852Z,57.67
2018-11-12T09:33:10.857Z,57.95
2018-11-12T09:34:10.828Z,57.57
2018-11-12T09:35:10.817Z,59.09
2018-11-12T09:36:10.805Z,58.07
2018-11-12T09:37:10.795Z,58.86
2018-11-12T09:38:10.885Z,60.00
2018-11-12T09:39:10.771Z,60.20
2018-11-12T09:40:10.760Z,57.78
2018-11-12T09:41:10.756Z,56.86
2018-11-12T09:42:10.744Z,57.67
2018-11-12T09:43:10.779Z,60.81
2018-11-12T09:44:10.757Z,58.92
2018-11-12T09:45:10.704Z,59.52
2018-11-12T09:46:10.716Z,60.53
2018-11-12T09:47:10.677Z,59.72
2018-11-12T09:48:10.704Z,60.13
2018-11-12T09:49:10.738Z,60.23
2018-11-12T09:50:10.642Z,62.05
2018-11-12T09:51:10.639Z,57.29
2018-11-12T09:52:10.629Z,58.81
2018-11-12T09:53:10.636Z,61.24
2018-11-12T09:54:10.651Z,60.53
2018-11-12T09:55:10.600Z,58.00
2018-11-12T09:56:10.586Z,60.13
2018-11-12T09:57:10.576Z,58.92
2018-11-12T09:58:10.575Z,60.13
2018-11-12T09:59:10.605Z,58.28
2018-11-12T10:00:10.595Z,58.48
2018-11-12T10:01:10.649Z,60.17
2018-11-12T10:02:11.242Z,60.17
2018-11-12T10:03:11.443Z,60.88
2018-11-12T10:04:11.251Z,59.49
2018-11-12T10:05:11.644Z,59.39
2018-11-12T10:06:11.506Z,56.13
2018-11-12T10:07:11.660Z,58.58
2018-11-12T10:08:12.275Z,57.54
2018-11-12T10:09:12.034Z,55.73
2018-11-12T10:10:13.684Z,55.93
2018-11-12T10:11:14.901Z,57.34
2018-11-12T10:12:14.223Z,59.06
2018-11-12T10:13:12.925Z,58.56
2018-11-12T10:14:12.868Z,58.89
2018-11-12T10:15:12.876Z,59.09
2018-11-12T10:16:13.909Z,58.58
2018-11-12T10:17:13.166Z,61.72
2018-11-12T10:19:10.323Z,62.02
2018-11-12T10:20:10.363Z,61.62
2018-11-12T10:21:10.385Z,63.04
2018-11-12T10:22:10.288Z,61.82
2018-11-12T10:23:10.281Z,63.75
2018-11-12T10:24:10.279Z,63.44
2018-11-12T10:25:10.255Z,63.17
2018-11-12T10:26:10.242Z,61.44
2018-11-12T10:27:10.259Z,61.32
2018-11-12T10:28:10.219Z,60.10
2018-11-12T10:29:10.222Z,60.78
2018-11-12T10:30:10.198Z,60.88
2018-11-12T10:31:10.191Z,60.88
2018-11-12T10:32:10.175Z,62.19
2018-11-12T10:33:10.163Z,61.72
2018-11-12T10:34:10.235Z,61.82
2018-11-12T10:35:10.142Z,61.32
2018-11-12T10:36:10.223Z,62.43
2018-11-12T10:37:10.119Z,61.82
2018-11-12T10:38:10.108Z,61.41
2018-11-12T10:39:10.112Z,60.91
2018-11-12T10:40:10.084Z,63.24
2018-11-12T10:41:10.125Z,63.34
2018-11-12T10:42:10.067Z,63.24
2018-11-12T10:43:10.051Z,63.24
2018-11-12T10:44:10.039Z,62.60
2018-11-12T10:45:10.035Z,60.41
2018-11-12T10:46:10.021Z,62.30
2018-11-12T10:47:10.005Z,60.91
2018-11-12T10:48:10.139Z,61.19
2018-11-12T10:49:09.996Z,62.60
2018-11-12T10:50:09.973Z,63.41
2018-11-12T10:51:09.974Z,61.90
2018-11-12T10:52:09.959Z,60.30
2018-11-12T10:53:09.943Z,60.41
2018-11-12T10:54:10.207Z,60.94
2018-11-12T10:55:10.149Z,60.00
2018-11-12T10:56:10.011Z,60.03
2018-11-12T10:57:09.896Z,61.85
2018-11-12T10:58:09.883Z,63.17
2018-11-12T10:59:09.882Z,63.78
2018-11-12T11:00:09.888Z,65.70
2018-11-12T11:01:09.848Z,66.41
2018-11-12T11:02:09.840Z,62.08
2018-11-12T11:03:09.825Z,63.70
2018-11-12T11:04:09.826Z,65.42
2018-11-12T11:05:09.806Z,63.09
2018-11-12T11:06:09.794Z,62.49
2018-11-12T11:07:09.778Z,63.50
2018-11-12T11:08:09.885Z,63.50
2018-11-12T11:09:09.769Z,63.30
2018-11-12T11:10:09.750Z,61.35
2018-11-12T11:11:09.739Z,60.06
2018-11-12T11:12:09.722Z,60.46
2018-11-12T11:13:09.781Z,60.53
2018-11-12T11:14:09.727Z,60.23
2018-11-12T11:15:09.694Z,59.52
2018-11-12T11:16:09.678Z,59.72
2018-11-12T11:17:09.670Z,60.33
2018-11-12T11:18:09.655Z,62.05
2018-11-12T11:19:09.656Z,60.94
2018-11-12T11:20:09.632Z,60.13
2018-11-12T11:21:11.461Z,56.05
2018-11-12T11:22:09.611Z,57.65
2018-11-12T11:23:09.598Z,59.16
2018-11-12T11:24:09.603Z,59.56
2018-11-12T11:25:09.576Z,59.16
2018-11-12T11:26:09.566Z,58.45
2018-11-12T11:27:09.554Z,59.67
2018-11-12T11:28:09.542Z,57.75
2018-11-12T11:29:09.545Z,58.56
2018-11-12T11:30:09.520Z,58.25
2018-11-12T11:31:09.508Z,58.56
2018-11-12T11:32:09.496Z,60.07
2018-11-12T11:33:09.493Z,59.06
2018-11-12T11:34:09.474Z,55.57
2018-11-12T11:35:09.476Z,55.65
2018-11-12T11:36:09.459Z,56.76
2018-11-12T11:37:09.444Z,56.96
2018-11-12T11:38:09.428Z,57.69
2018-11-12T11:39:09.418Z,57.18
2018-11-12T11:40:09.480Z,57.79
2018-11-12T11:41:09.395Z,56.91
2018-11-12T11:42:09.372Z,55.98
2018-11-12T11:43:09.373Z,56.76
2018-11-12T11:44:09.361Z,55.85
2018-11-12T11:45:09.362Z,55.77
2018-11-12T11:46:09.388Z,55.87
2018-11-12T11:47:09.347Z,57.69
2018-11-12T11:48:09.366Z,57.69
2018-11-12T11:49:09.337Z,57.18
2018-11-12T11:50:09.386Z,57.59
2018-11-12T11:51:09.283Z,57.39
2018-11-12T11:52:09.275Z,57.21
2018-11-12T11:53:09.264Z,58.02
2018-11-12T11:54:09.252Z,58.33
2018-11-12T11:55:09.249Z,59.54
2018-11-12T11:56:09.225Z,58.80
2018-11-12T11:57:09.231Z,56.51
2018-11-12T11:58:09.205Z,56.98
2018-11-12T11:59:09.192Z,59.31
2018-11-12T12:00:09.180Z,57.79
2018-11-12T12:01:09.173Z,59.31
2018-11-12T12:02:09.186Z,59.54
2018-11-12T12:03:09.291Z,60.45
2018-11-12T12:04:09.140Z,58.83
2018-11-12T12:05:09.137Z,59.44
2018-11-12T12:06:09.116Z,59.23
2018-11-12T12:07:09.110Z,58.76
2018-11-12T12:08:09.091Z,57.72
2018-11-12T12:09:09.146Z,57.42
2018-11-12T12:10:09.081Z,59.84
2018-11-12T12:11:09.062Z,59.23
2018-11-12T12:12:09.046Z,60.14
2018-11-12T12:13:09.083Z,59.44
2018-11-12T12:14:09.033Z,60.85
2018-11-12T12:15:09.024Z,61.49
2018-11-12T12:16:08.999Z,62.70
2018-11-12T12:17:08.991Z,63.10
2018-11-12T12:18:08.977Z,60.41
2018-11-12T12:19:08.978Z,62.23
2018-11-12T12:20:08.968Z,62.15
2018-11-12T12:21:09.011Z,63.17
2018-11-12T12:22:08.937Z,62.76
2018-11-12T12:23:08.920Z,62.26
2018-11-12T12:24:08.905Z,63.27
2018-11-12T12:25:09.021Z,63.67
2018-11-12T12:26:08.888Z,62.08
2018-11-12T12:27:08.875Z,62.46
2018-11-12T12:28:08.865Z,61.95
2018-11-12T12:29:08.855Z,61.24
2018-11-12T12:30:08.855Z,60.94
2018-11-12T12:31:08.833Z,61.55
2018-11-12T12:32:08.820Z,62.46
2018-11-12T12:33:08.805Z,63.67
2018-11-12T12:34:08.853Z,63.67
2018-11-12T12:35:08.797Z,63.47
2018-11-12T12:36:08.910Z,63.37
2018-11-12T12:37:08.764Z,60.94
2018-11-12T12:38:08.756Z,61.24
2018-11-12T12:39:08.744Z,63.95
2018-11-12T12:40:08.743Z,63.67
2018-11-12T12:41:08.717Z,63.37
2018-11-12T12:42:08.707Z,62.56
2018-11-12T12:43:08.696Z,62.53
2018-11-12T12:44:08.698Z,61.62
2018-11-12T12:45:08.756Z,59.06
2018-11-12T12:46:08.662Z,57.62
2018-11-12T12:47:08.658Z,56.68
2018-11-12T12:48:08.638Z,56.78
2018-11-12T12:49:08.631Z,55.74
2018-11-12T12:50:08.629Z,57.67
2018-11-12T12:51:08.604Z,56.56
2018-11-12T12:52:08.593Z,55.41
2018-11-12T12:53:08.582Z,55.82
2018-11-12T12:54:08.571Z,57.64
2018-11-12T12:55:08.570Z,55.92
2018-11-12T12:56:08.592Z,55.72
2018-11-12T12:57:08.541Z,55.99
2018-11-12T12:58:08.547Z,56.02
2018-11-12T12:59:08.518Z,54.89
2018-11-12T13:00:08.519Z,55.69
2018-11-12T13:01:08.496Z,55.79
2018-11-12T13:02:08.527Z,55.29
2018-11-12T13:03:08.474Z,55.39
2018-11-12T13:04:08.458Z,56.40
2018-11-12T13:05:08.451Z,56.60
2018-11-12T13:06:08.453Z,58.04
2018-11-12T13:07:08.424Z,56.85
2018-11-12T13:08:08.414Z,58.67
2018-11-12T13:09:08.401Z,57.56
2018-11-12T13:10:08.394Z,57.79
2018-11-12T13:11:08.399Z,59.48
2018-11-12T13:12:08.368Z,59.41
2018-11-12T13:13:08.356Z,59.41
2018-11-12T13:14:08.486Z,59.14
2018-11-12T13:15:08.373Z,61.25
2018-11-12T13:16:08.343Z,61.36
2018-11-12T13:17:08.315Z,62.30
2018-11-12T13:18:08.300Z,63.01
2018-11-12T13:19:08.288Z,63.01
2018-11-12T13:20:08.278Z,60.91
2018-11-12T13:21:08.301Z,60.91
2018-11-12T13:22:08.257Z,63.13
2018-11-12T13:23:08.243Z,63.67
2018-11-12T13:24:08.240Z,63.27
2018-11-12T13:25:08.226Z,63.47
2018-11-12T13:26:08.221Z,63.37
2018-11-12T13:27:08.197Z,62.26
2018-11-12T13:28:08.186Z,63.81
2018-11-12T13:29:08.178Z,63.60
2018-11-12T13:30:08.164Z,64.92
2018-11-12T13:31:08.164Z,63.60
2018-11-12T13:32:08.145Z,63.70
2018-11-12T13:33:08.137Z,65.22
2018-11-12T13:34:08.118Z,65.22
2018-11-12T13:35:08.107Z,63.50
2018-11-12T13:36:08.108Z,62.89
2018-11-12T13:37:08.086Z,62.18
2018-11-12T13:38:08.077Z,61.85
2018-11-12T13:39:08.068Z,62.56
2018-11-12T13:40:08.050Z,63.47
2018-11-12T13:41:08.056Z,65.16
2018-11-12T13:42:08.051Z,63.34
2018-11-12T13:43:08.017Z,62.23
2018-11-12T13:44:08.009Z,64.35
2018-11-12T13:45:07.997Z,64.25
2018-11-12T13:46:07.991Z,64.86
2018-11-12T13:47:07.972Z,66.38
2018-11-12T13:48:07.968Z,65.43
2018-11-12T13:49:07.949Z,64.45
2018-11-12T13:50:07.937Z,63.51
2018-11-12T13:51:07.945Z,66.04
2018-11-12T13:52:07.914Z,67.05
2018-11-12T13:53:07.960Z,67.25
2018-11-12T13:54:07.907Z,66.04
2018-11-12T13:55:07.881Z,66.64
2018-11-12T13:56:07.881Z,67.05
2018-11-12T13:57:07.862Z,67.76
2018-11-12T13:58:07.835Z,66.95
2018-11-12T13:59:07.837Z,67.86
2018-11-12T14:00:07.826Z,63.51
2018-11-12T14:01:07.825Z,61.79
2018-11-12T14:02:07.802Z,63.61
2018-11-12T14:03:07.779Z,65.33
2018-11-12T14:04:07.776Z,65.56
2018-11-12T14:05:07.773Z,65.77
2018-11-12T14:06:07.766Z,63.64
2018-11-12T14:07:07.739Z,66.91
2018-11-12T14:08:07.736Z,66.50
2018-11-12T14:09:07.718Z,65.90
2018-11-12T14:10:07.711Z,66.44
2018-11-12T14:11:07.710Z,67.25
2018-11-12T14:12:07.688Z,66.24
2018-11-12T14:13:07.681Z,67.76
2018-11-12T14:14:07.782Z,63.60
2018-11-12T14:15:07.651Z,63.17
2018-11-12T14:16:07.653Z,65.19
2018-11-12T14:17:07.632Z,65.80
2018-11-12T14:18:07.616Z,66.24
2018-11-12T14:19:07.605Z,64.92
2018-11-12T14:20:07.635Z,64.92
2018-11-12T14:21:07.750Z,64.51
2018-11-12T14:22:07.571Z,65.32
2018-11-12T14:23:07.560Z,66.84
2018-11-12T14:24:07.548Z,65.96
2018-11-12T14:25:07.538Z,65.83
2018-11-12T14:26:07.550Z,67.48
2018-11-12T14:27:07.515Z,67.99
2018-11-12T14:28:07.534Z,68.23
2018-11-12T14:29:07.492Z,67.51
2018-11-12T14:30:07.485Z,66.53
2018-11-12T14:31:07.469Z,66.33
2018-11-12T14:32:07.478Z,67.78
2018-11-12T14:33:07.456Z,69.27
2018-11-12T14:34:07.436Z,69.20
2018-11-12T14:35:07.425Z,69.51
2018-11-12T14:36:07.494Z,70.83
2018-11-12T14:37:07.435Z,71.44
2018-11-12T14:38:07.390Z,71.53
2018-11-12T14:39:07.389Z,72.45
2018-11-12T14:40:07.414Z,71.73
2018-11-12T14:41:07.356Z,70.83
2018-11-12T14:42:07.357Z,71.13
2018-11-12T14:43:07.356Z,68.19
2018-11-12T14:44:07.317Z,68.79
2018-11-12T14:45:07.349Z,69.40
2018-11-12T14:46:07.301Z,70.18
2018-11-12T14:47:07.301Z,71.23
2018-11-12T14:48:07.293Z,72.45
2018-11-12T14:49:07.267Z,72.34
2018-11-12T14:50:07.256Z,72.55
2018-11-12T14:51:07.297Z,71.94
2018-11-12T14:52:07.250Z,72.34
2018-11-12T14:53:07.227Z,72.04
2018-11-12T14:54:07.226Z,72.96
2018-11-12T14:55:07.255Z,72.99
2018-11-12T14:56:07.186Z,71.06
2018-11-12T14:57:07.193Z,71.16
2018-11-12T14:58:07.165Z,71.26
2018-11-12T14:59:07.153Z,69.60
2018-11-12T15:00:07.141Z,70.83
2018-11-12T15:01:07.130Z,67.47
2018-11-12T15:02:07.131Z,69.20
2018-11-12T15:03:07.107Z,70.48
2018-11-12T15:04:07.096Z,70.79
2018-11-12T15:05:07.087Z,70.52
2018-11-12T15:06:07.090Z,69.88
2018-11-12T15:07:08.798Z,69.57
2018-11-12T15:08:07.051Z,69.30
2018-11-12T15:09:07.044Z,69.57
2018-11-12T15:10:07.034Z,70.89
2018-11-12T15:11:07.018Z,71.09
2018-11-12T15:12:07.017Z,71.60
2018-11-12T15:13:06.995Z,72.65
2018-11-12T15:14:06.984Z,71.84
2018-11-12T15:15:07.029Z,71.13
2018-11-12T15:16:06.961Z,70.83
2018-11-12T15:17:06.961Z,71.23
2018-11-12T15:18:06.938Z,71.94
2018-11-12T15:19:06.926Z,71.84
2018-11-12T15:20:09.126Z,71.73
2018-11-12T15:21:07.067Z,70.83
2018-11-12T15:22:06.905Z,69.10
2018-11-12T15:23:06.881Z,70.62
2018-11-12T15:24:06.991Z,71.23
2018-11-12T15:25:06.865Z,67.78
2018-11-12T15:26:06.849Z,68.70
2018-11-12T15:27:06.849Z,68.70
2018-11-12T15:28:06.825Z,68.90
2018-11-12T15:29:06.853Z,69.81
2018-11-12T15:30:06.802Z,68.90
2018-11-12T15:31:06.791Z,69.60
2018-11-12T15:32:06.803Z,69.81
2018-11-12T15:33:06.792Z,70.92
2018-11-12T15:34:06.754Z,71.23
2018-11-12T15:35:06.750Z,71.33
2018-11-12T15:36:06.735Z,70.92
2018-11-12T15:37:06.929Z,70.72
2018-11-12T15:38:06.712Z,70.86
2018-11-12T15:39:06.701Z,71.06
2018-11-12T15:40:06.689Z,72.17
2018-11-12T15:41:06.716Z,73.09
2018-11-12T15:42:06.674Z,73.39
2018-11-12T15:43:06.761Z,73.83
2018-11-12T15:44:06.645Z,73.94
2018-11-12T15:45:06.637Z,74.44
2018-11-12T15:46:06.625Z,74.44
2018-11-12T15:47:06.623Z,74.65
2018-11-12T15:48:06.598Z,74.07
2018-11-12T15:49:06.591Z,75.19
2018-11-12T15:50:06.575Z,75.19
2018-11-12T15:51:06.748Z,74.99
2018-11-12T15:52:06.565Z,74.18
2018-11-12T15:53:06.542Z,74.68
2018-11-12T15:54:06.531Z,75.90
2018-11-12T15:55:06.520Z,75.80
2018-11-12T15:56:06.508Z,75.70
2018-11-12T15:57:06.655Z,75.19
2018-11-12T15:58:06.552Z,76.01
2018-11-12T15:59:06.474Z,76.21
2018-11-12T16:00:06.465Z,75.84
2018-11-12T16:01:06.453Z,76.04
2018-11-12T16:02:06.468Z,76.55
2018-11-12T16:03:06.430Z,76.45
2018-11-12T16:04:06.418Z,76.75
2018-11-12T16:05:06.408Z,76.68
2018-11-12T16:06:06.483Z,76.59
2018-11-12T16:07:06.396Z,77.16
2018-11-12T16:08:06.376Z,76.68
2018-11-12T16:09:06.364Z,76.79
2018-11-12T16:10:06.350Z,76.68
2018-11-12T16:11:06.424Z,77.09
2018-11-12T16:12:06.360Z,77.50
2018-11-12T16:13:06.324Z,77.20
2018-11-12T16:14:06.305Z,77.20
2018-11-12T16:15:06.293Z,76.59
2018-11-12T16:16:06.283Z,77.53
2018-11-12T16:17:06.270Z,77.84
2018-11-12T16:18:06.271Z,77.33
2018-11-12T16:19:06.277Z,77.44
2018-11-12T16:20:06.236Z,76.35
2018-11-12T16:21:06.225Z,76.04
2018-11-12T16:22:06.214Z,76.76
2018-11-12T16:23:06.215Z,76.56
2018-11-12T16:24:06.191Z,76.86
2018-11-12T16:25:06.201Z,77.30
2018-11-12T16:26:06.170Z,77.47
2018-11-12T16:27:06.161Z,77.81
2018-11-12T16:28:06.168Z,78.63
2018-11-12T16:29:06.134Z,78.53
2018-11-12T16:30:06.128Z,78.87
2018-11-12T16:31:06.116Z,79.07
2018-11-12T16:32:06.101Z,79.21
2018-11-12T16:33:06.125Z,79.00
2018-11-12T16:34:06.081Z,79.68
2018-11-12T16:35:06.071Z,79.62
2018-11-12T16:36:06.055Z,79.52
2018-11-12T16:37:06.052Z,79.72
2018-11-12T16:38:06.044Z,79.96
2018-11-12T16:39:06.021Z,80.27
2018-11-12T16:40:06.035Z,79.96
2018-11-12T16:41:06.007Z,79.86
2018-11-12T16:42:05.989Z,80.07
2018-11-12T16:43:05.989Z,80.37
2018-11-12T16:44:05.969Z,79.96
2018-11-12T16:45:05.953Z,80.07
2018-11-12T16:46:06.010Z,80.37
2018-11-12T16:47:05.934Z,80.41
2018-11-12T16:48:05.933Z,80.20
2018-11-12T16:49:05.912Z,80.30
2018-11-12T16:50:05.897Z,80.30
2018-11-12T16:51:05.890Z,80.41
2018-11-12T16:52:05.878Z,80.20
2018-11-12T16:53:05.890Z,80.41
2018-11-12T16:54:05.867Z,80.96
2018-11-12T16:55:05.847Z,80.55
2018-11-12T16:56:05.833Z,80.44
2018-11-12T16:57:05.826Z,80.85
2018-11-12T16:58:05.838Z,81.05
2018-11-12T16:59:05.804Z,81.37
2018-11-12T17:00:05.796Z,81.46
2018-11-12T17:01:05.797Z,81.37
2018-11-12T17:02:05.794Z,80.96
2018-11-12T17:03:05.791Z,81.51
2018-11-12T17:04:05.752Z,81.77
2018-11-12T17:05:05.748Z,81.16
2018-11-12T17:06:05.731Z,81.67
2018-11-12T17:07:05.716Z,81.20
2018-11-12T17:08:05.725Z,81.40
2018-11-12T17:09:05.690Z,81.67
2018-11-12T17:10:05.683Z,81.71
2018-11-12T17:11:05.719Z,81.98
2018-11-12T17:12:05.702Z,81.37
2018-11-12T17:13:05.670Z,81.57
2018-11-12T17:14:05.637Z,81.32
2018-11-12T17:15:05.719Z,81.12
2018-11-12T17:16:05.615Z,81.26
2018-11-12T17:17:05.603Z,81.16
2018-11-12T17:18:05.604Z,80.85
2018-11-12T17:19:05.577Z,81.16
2018-11-12T17:20:05.574Z,81.05
2018-11-12T17:21:05.556Z,81.46
2018-11-12T17:22:05.572Z,81.57
2018-11-12T17:23:05.550Z,81.91
2018-11-12T17:24:05.516Z,82.32
2018-11-12T17:25:05.507Z,82.32
2018-11-12T17:26:05.524Z,82.93
2018-11-12T17:27:05.499Z,82.93
2018-11-12T17:28:05.515Z,82.63
2018-11-12T17:29:05.463Z,83.04
2018-11-12T17:30:07.302Z,82.63
2018-11-12T17:31:05.446Z,82.83
2018-11-12T17:32:05.444Z,82.83
2018-11-12T17:33:05.450Z,83.04
2018-11-12T17:34:05.415Z,82.05
2018-11-12T17:35:05.400Z,82.97
2018-11-12T17:36:05.385Z,82.15
2018-11-12T17:37:05.387Z,83.18
2018-11-12T17:38:05.398Z,83.48
2018-11-12T17:39:05.371Z,83.48
2018-11-12T17:40:05.343Z,83.18
2018-11-12T17:41:05.336Z,83.28
2018-11-12T17:42:05.330Z,82.97
2018-11-12T17:43:05.631Z,82.50
2018-11-12T17:44:09.048Z,82.97
2018-11-12T17:45:05.285Z,83.62
2018-11-12T17:46:05.267Z,84.75
2018-11-12T17:47:05.264Z,83.73
2018-11-12T17:48:05.288Z,83.52
2018-11-12T17:49:05.235Z,84.65
2018-11-12T17:50:05.226Z,84.65
2018-11-12T17:51:05.210Z,84.34
2018-11-12T17:52:05.209Z,84.48
2018-11-12T17:53:05.236Z,84.48
2018-11-12T17:54:05.184Z,84.44
2018-11-12T17:55:05.171Z,83.66
2018-11-12T17:56:05.172Z,83.76
2018-11-12T17:57:05.152Z,84.79
2018-11-12T17:58:05.172Z,84.58
2018-11-12T17:59:05.173Z,84.69